Salem, OR (97301)

12:34 AM PST on December 10, 2016 (GMT -0800)
Center & Cordon NE | | Change Station

Elev 210 ft 44.94 °N, 122.96 °W | Updated 3 seconds ago

Light Rain
Light Rain Mist
45.4 °F
Feels Like 43 °F
N
4.5
Wind Variable Wind from WSW
Gusts 5.0 mph

Today
High -- | Low -- °F
--% Chance of Precip.
Yesterday
High -- | Low -- °F
Precip. -- in
Pressure 29.87 in
Visibility 6.0 miles
Clouds Few 800 ft
Mostly Cloudy 3500 ft
Overcast 4800 ft
Windchill 43 °F
Dew Point 44 °F
Humidity 95%
Rainfall 0.02 in
Snow Depth Not available.
7:39 AM 4:30 PM
Waxing Gibbous, 81% visible
SPECI KSLE 100803Z AUTO 19008KT 6SM -RA BR FEW008 BKN035 OVC048 08/07 A2987 RMK AO2 P0001 T00830067
Pressure 29.87 in
Visibility 6.0 miles
Clouds Few 800 ft
Mostly Cloudy 3500 ft
Overcast 4800 ft
Windchill 43 °F
Dew Point 44 °F
Humidity 95%
Rainfall 0.02 in
Snow Depth Not available.
7:39 AM 4:30 PM
Waxing Gibbous, 81% visible
SPECI KSLE 100803Z AUTO 19008KT 6SM -RA BR FEW008 BKN035 OVC048 08/07 A2987 RMK AO2 P0001 T00830067

10-Day Weather Forecast

Almanac

Astronomy

Dec. 10, 2016 Rise Set
Actual Time
Civil Twilight
Nautical Twilight
Astronomical Twilight
Moon
Length of Visible Light
Length of Day
Tomorrow will be .
, % of the Moon is Illuminated

Today's Extremes

State Highs State Lows

Community

WunderPhotos

Upload Photos

1,956,538 photos uploaded!

WunderBlog® & News

Nearby

Air Quality

  Air Quality AQ Index Pollutant
Not available.

Snow Depth

Station Depth Elevation

Earthquake Activity

City Distance Mag. Time & Date
Minimum magnitude displayed is 2.5.

Coastal Water Temperatures

Place Temperature

Stations

Nearby Weather Stations

Station Location Temp. Windchill Dew Point Humidity Wind Precip. Elev Updated Type
                   

Watches & Warnings

There are currently no watches in effect.